1A6

Middlesboro-Bell County Airport

Middlesboro, Kentucky, USA
METAR K1A6 161955Z AUTO 18008KT 10SM SCT037 BKN045 BKN120 31/22 A2999 RMK AO2 T03060215
Observed Flight Rules
Jul-16 @ 19:55 UTC (15 minutes ago) Visual Flight Rules
Wind Visibility Clouds
180° at 8 knots 10 miles
  • Scattered at 3,700' AGL
  • Broken at 4,500' AGL
  • Broken at 12,000' AGL
Temperatures Readings
Current 31°C / 88°F
Dewpoint 22°C / 72°F
Humidity 59%
Altimeter 29.99" Hg
Pressure 1016 hPa
Elevation 352
METAR K1A6 161955Z AUTO 18008KT 10SM SCT037 BKN045 BKN120 31/22 A2999 RMK AO2 T03060215
Observed Flight Rules
Jul-16 @ 19:55 UTC
(15 minutes ago)
VFR
Wind Visibility
180° at 8 knots 10 miles
Clouds
  • Scattered at 3,700' AGL
  • Broken at 4,500' AGL
  • Broken at 12,000' AGL
Temperature Dewpoint
31°C / 88°F 22°C / 72°F
Humidity Altimeter Pressure
59% 29.99" Hg 1016 hPa